sensor_id;sensor_type;location;lat;lon;timestamp;P1;durP1;ratioP1;P2;durP2;ratioP2
59145;SDS011;44928;53.074;6.646;2022-07-05T00:00:41;7.10;;;2.25;;
59145;SDS011;44928;53.074;6.646;2022-07-05T00:03:07;5.40;;;1.90;;
59145;SDS011;44928;53.074;6.646;2022-07-05T00:05:34;5.13;;;1.80;;
59145;SDS011;44928;53.074;6.646;2022-07-05T00:08:00;6.35;;;2.28;;
59145;SDS011;44928;53.074;6.646;2022-07-05T00:10:26;5.55;;;2.03;;
59145;SDS011;44928;53.074;6.646;2022-07-05T00:12:51;5.70;;;1.80;;
59145;SDS011;44928;53.074;6.646;2022-07-05T00:15:17;5.65;;;1.83;;
59145;SDS011;44928;53.074;6.646;2022-07-05T00:17:43;5.40;;;1.90;;
59145;SDS011;44928;53.074;6.646;2022-07-05T00:20:09;5.72;;;1.90;;
59145;SDS011;44928;53.074;6.646;2022-07-05T00:22:35;6.25;;;1.75;;
59145;SDS011;44928;53.074;6.646;2022-07-05T00:25:01;4.82;;;1.92;;
59145;SDS011;44928;53.074;6.646;2022-07-05T00:27:27;6.88;;;1.95;;
59145;SDS011;44928;53.074;6.646;2022-07-05T00:29:53;7.10;;;2.17;;
59145;SDS011;44928;53.074;6.646;2022-07-05T00:32:19;5.95;;;1.90;;
59145;SDS011;44928;53.074;6.646;2022-07-05T00:34:45;6.35;;;2.17;;
59145;SDS011;44928;53.074;6.646;2022-07-05T00:37:10;6.88;;;1.98;;
59145;SDS011;44928;53.074;6.646;2022-07-05T00:39:37;6.97;;;2.17;;
59145;SDS011;44928;53.074;6.646;2022-07-05T00:42:03;6.53;;;3.00;;
59145;SDS011;44928;53.074;6.646;2022-07-05T00:44:30;6.50;;;2.80;;
59145;SDS011;44928;53.074;6.646;2022-07-05T00:47:00;6.75;;;2.33;;
59145;SDS011;44928;53.074;6.646;2022-07-05T00:49:30;7.40;;;2.40;;
59145;SDS011;44928;53.074;6.646;2022-07-05T00:51:57;5.55;;;2.00;;
59145;SDS011;44928;53.074;6.646;2022-07-05T00:54:24;7.03;;;2.45;;
59145;SDS011;44928;53.074;6.646;2022-07-05T00:56:51;5.57;;;1.90;;
59145;SDS011;44928;53.074;6.646;2022-07-05T00:59:18;4.10;;;1.90;;
59145;SDS011;44928;53.074;6.646;2022-07-05T01:01:43;5.55;;;2.33;;
59145;SDS011;44928;53.074;6.646;2022-07-05T01:04:10;7.63;;;2.40;;
59145;SDS011;44928;53.074;6.646;2022-07-05T01:06:37;6.75;;;2.38;;
59145;SDS011;44928;53.074;6.646;2022-07-05T01:09:08;6.88;;;2.13;;
59145;SDS011;44928;53.074;6.646;2022-07-05T01:11:38;5.43;;;1.98;;
59145;SDS011;44928;53.074;6.646;2022-07-05T01:14:15;5.97;;;2.25;;
59145;SDS011;44928;53.074;6.646;2022-07-05T01:16:42;7.22;;;2.45;;
59145;SDS011;44928;53.074;6.646;2022-07-05T01:19:09;5.38;;;2.08;;
59145;SDS011;44928;53.074;6.646;2022-07-05T01:21:40;6.28;;;2.20;;
59145;SDS011;44928;53.074;6.646;2022-07-05T01:24:10;6.15;;;2.33;;
59145;SDS011;44928;53.074;6.646;2022-07-05T01:26:39;6.05;;;2.10;;
59145;SDS011;44928;53.074;6.646;2022-07-05T01:29:05;7.47;;;2.67;;
59145;SDS011;44928;53.074;6.646;2022-07-05T01:31:32;6.13;;;2.35;;
59145;SDS011;44928;53.074;6.646;2022-07-05T01:33:58;6.38;;;2.60;;
59145;SDS011;44928;53.074;6.646;2022-07-05T01:36:24;6.20;;;2.70;;
59145;SDS011;44928;53.074;6.646;2022-07-05T01:38:50;7.68;;;2.58;;
59145;SDS011;44928;53.074;6.646;2022-07-05T01:44:57;6.15;;;2.58;;
59145;SDS011;44928;53.074;6.646;2022-07-05T01:47:23;6.05;;;2.50;;
59145;SDS011;44928;53.074;6.646;2022-07-05T01:49:49;6.55;;;2.58;;
59145;SDS011;44928;53.074;6.646;2022-07-05T01:52:20;5.50;;;2.30;;
59145;SDS011;44928;53.074;6.646;2022-07-05T01:54:46;5.38;;;2.38;;
59145;SDS011;44928;53.074;6.646;2022-07-05T01:57:12;7.97;;;2.72;;
59145;SDS011;44928;53.074;6.646;2022-07-05T01:59:39;5.93;;;2.40;;
59145;SDS011;44928;53.074;6.646;2022-07-05T02:02:06;6.60;;;2.58;;
59145;SDS011;44928;53.074;6.646;2022-07-05T02:04:36;6.82;;;2.70;;
59145;SDS011;44928;53.074;6.646;2022-07-05T02:07:06;5.95;;;2.50;;
59145;SDS011;44928;53.074;6.646;2022-07-05T02:09:32;6.97;;;2.38;;
59145;SDS011;44928;53.074;6.646;2022-07-05T02:11:58;6.95;;;2.60;;
59145;SDS011;44928;53.074;6.646;2022-07-05T02:14:25;6.82;;;2.63;;
59145;SDS011;44928;53.074;6.646;2022-07-05T02:16:51;6.50;;;2.40;;
59145;SDS011;44928;53.074;6.646;2022-07-05T02:19:16;6.00;;;2.85;;
59145;SDS011;44928;53.074;6.646;2022-07-05T02:21:42;6.07;;;2.85;;
59145;SDS011;44928;53.074;6.646;2022-07-05T02:24:08;5.80;;;2.63;;
59145;SDS011;44928;53.074;6.646;2022-07-05T02:26:35;6.30;;;2.60;;
59145;SDS011;44928;53.074;6.646;2022-07-05T02:29:01;6.68;;;2.55;;
59145;SDS011;44928;53.074;6.646;2022-07-05T02:31:28;6.28;;;2.38;;
59145;SDS011;44928;53.074;6.646;2022-07-05T02:33:54;6.35;;;2.72;;
59145;SDS011;44928;53.074;6.646;2022-07-05T02:36:20;7.05;;;2.70;;
59145;SDS011;44928;53.074;6.646;2022-07-05T02:38:46;6.43;;;2.80;;
59145;SDS011;44928;53.074;6.646;2022-07-05T02:41:11;6.88;;;2.88;;
59145;SDS011;44928;53.074;6.646;2022-07-05T02:43:37;6.88;;;3.00;;
59145;SDS011;44928;53.074;6.646;2022-07-05T02:46:04;5.85;;;2.85;;
59145;SDS011;44928;53.074;6.646;2022-07-05T02:48:31;7.82;;;3.38;;
59145;SDS011;44928;53.074;6.646;2022-07-05T02:50:58;7.70;;;3.25;;
59145;SDS011;44928;53.074;6.646;2022-07-05T02:53:24;7.78;;;3.08;;
59145;SDS011;44928;53.074;6.646;2022-07-05T02:55:50;6.38;;;3.17;;
59145;SDS011;44928;53.074;6.646;2022-07-05T02:58:15;6.57;;;3.28;;
59145;SDS011;44928;53.074;6.646;2022-07-05T03:00:45;7.35;;;3.17;;
59145;SDS011;44928;53.074;6.646;2022-07-05T03:03:12;6.50;;;2.90;;
59145;SDS011;44928;53.074;6.646;2022-07-05T03:05:38;10.35;;;3.50;;
59145;SDS011;44928;53.074;6.646;2022-07-05T03:08:04;7.15;;;3.05;;
59145;SDS011;44928;53.074;6.646;2022-07-05T03:10:30;7.00;;;3.15;;
59145;SDS011;44928;53.074;6.646;2022-07-05T03:12:56;6.93;;;2.72;;
59145;SDS011;44928;53.074;6.646;2022-07-05T03:15:22;8.55;;;3.60;;
59145;SDS011;44928;53.074;6.646;2022-07-05T03:17:47;7.40;;;2.97;;
59145;SDS011;44928;53.074;6.646;2022-07-05T03:20:13;6.68;;;3.15;;
59145;SDS011;44928;53.074;6.646;2022-07-05T03:22:39;7.47;;;2.88;;
59145;SDS011;44928;53.074;6.646;2022-07-05T03:25:05;7.10;;;3.08;;
59145;SDS011;44928;53.074;6.646;2022-07-05T03:27:31;7.63;;;3.17;;
59145;SDS011;44928;53.074;6.646;2022-07-05T03:29:57;7.20;;;2.95;;
59145;SDS011;44928;53.074;6.646;2022-07-05T03:32:23;7.15;;;3.40;;
59145;SDS011;44928;53.074;6.646;2022-07-05T03:34:49;8.35;;;3.85;;
59145;SDS011;44928;53.074;6.646;2022-07-05T03:37:14;8.13;;;3.50;;
59145;SDS011;44928;53.074;6.646;2022-07-05T03:39:40;7.93;;;3.47;;
59145;SDS011;44928;53.074;6.646;2022-07-05T03:42:06;7.68;;;3.25;;
59145;SDS011;44928;53.074;6.646;2022-07-05T03:44:32;7.45;;;3.50;;
59145;SDS011;44928;53.074;6.646;2022-07-05T03:47:00;7.50;;;3.30;;
59145;SDS011;44928;53.074;6.646;2022-07-05T03:49:26;7.60;;;3.10;;
59145;SDS011;44928;53.074;6.646;2022-07-05T03:51:52;8.48;;;3.88;;
59145;SDS011;44928;53.074;6.646;2022-07-05T03:54:18;6.95;;;3.00;;
59145;SDS011;44928;53.074;6.646;2022-07-05T03:56:43;7.20;;;3.47;;
59145;SDS011;44928;53.074;6.646;2022-07-05T03:59:09;7.22;;;3.55;;
59145;SDS011;44928;53.074;6.646;2022-07-05T04:01:35;6.43;;;3.22;;
59145;SDS011;44928;53.074;6.646;2022-07-05T04:04:01;8.85;;;3.60;;
59145;SDS011;44928;53.074;6.646;2022-07-05T04:06:26;8.98;;;3.92;;
59145;SDS011;44928;53.074;6.646;2022-07-05T04:08:52;7.43;;;4.10;;
59145;SDS011;44928;53.074;6.646;2022-07-05T04:11:18;7.70;;;4.13;;
59145;SDS011;44928;53.074;6.646;2022-07-05T04:13:44;7.15;;;3.65;;
59145;SDS011;44928;53.074;6.646;2022-07-05T04:16:09;10.52;;;4.25;;
59145;SDS011;44928;53.074;6.646;2022-07-05T04:18:35;7.88;;;3.83;;
59145;SDS011;44928;53.074;6.646;2022-07-05T04:21:01;7.78;;;4.03;;
59145;SDS011;44928;53.074;6.646;2022-07-05T04:23:28;9.25;;;3.97;;
59145;SDS011;44928;53.074;6.646;2022-07-05T04:25:53;7.65;;;4.20;;
59145;SDS011;44928;53.074;6.646;2022-07-05T04:28:19;8.10;;;3.97;;
59145;SDS011;44928;53.074;6.646;2022-07-05T04:30:45;8.55;;;4.75;;
59145;SDS011;44928;53.074;6.646;2022-07-05T04:33:11;9.35;;;4.95;;
59145;SDS011;44928;53.074;6.646;2022-07-05T04:35:37;9.43;;;4.88;;
59145;SDS011;44928;53.074;6.646;2022-07-05T04:38:03;8.20;;;4.63;;
59145;SDS011;44928;53.074;6.646;2022-07-05T04:40:29;9.10;;;4.93;;
59145;SDS011;44928;53.074;6.646;2022-07-05T04:42:54;9.80;;;5.30;;
59145;SDS011;44928;53.074;6.646;2022-07-05T04:45:20;10.00;;;5.13;;
59145;SDS011;44928;53.074;6.646;2022-07-05T04:47:46;9.63;;;5.15;;
59145;SDS011;44928;53.074;6.646;2022-07-05T04:50:12;11.80;;;6.28;;
59145;SDS011;44928;53.074;6.646;2022-07-05T04:52:38;10.02;;;5.07;;
59145;SDS011;44928;53.074;6.646;2022-07-05T04:55:03;10.55;;;4.60;;
59145;SDS011;44928;53.074;6.646;2022-07-05T04:57:39;8.73;;;5.05;;
59145;SDS011;44928;53.074;6.646;2022-07-05T05:00:09;8.60;;;5.25;;
59145;SDS011;44928;53.074;6.646;2022-07-05T05:02:36;9.27;;;4.63;;
59145;SDS011;44928;53.074;6.646;2022-07-05T05:05:02;8.35;;;4.85;;
59145;SDS011;44928;53.074;6.646;2022-07-05T05:07:28;9.55;;;5.18;;
59145;SDS011;44928;53.074;6.646;2022-07-05T05:09:54;9.63;;;4.97;;
59145;SDS011;44928;53.074;6.646;2022-07-05T05:12:20;9.82;;;5.10;;
59145;SDS011;44928;53.074;6.646;2022-07-05T05:14:46;9.93;;;5.25;;
59145;SDS011;44928;53.074;6.646;2022-07-05T05:17:12;9.15;;;5.32;;
59145;SDS011;44928;53.074;6.646;2022-07-05T05:19:37;9.63;;;5.18;;
59145;SDS011;44928;53.074;6.646;2022-07-05T05:22:03;11.38;;;5.93;;
59145;SDS011;44928;53.074;6.646;2022-07-05T05:24:29;9.52;;;5.57;;
59145;SDS011;44928;53.074;6.646;2022-07-05T05:26:55;8.88;;;5.38;;
59145;SDS011;44928;53.074;6.646;2022-07-05T05:29:21;9.98;;;5.05;;
59145;SDS011;44928;53.074;6.646;2022-07-05T05:31:47;9.60;;;4.53;;
59145;SDS011;44928;53.074;6.646;2022-07-05T05:34:13;8.65;;;5.13;;
59145;SDS011;44928;53.074;6.646;2022-07-05T05:36:39;8.70;;;4.90;;
59145;SDS011;44928;53.074;6.646;2022-07-05T05:39:04;8.52;;;4.63;;
59145;SDS011;44928;53.074;6.646;2022-07-05T05:41:30;8.63;;;4.40;;
59145;SDS011;44928;53.074;6.646;2022-07-05T05:43:56;11.30;;;4.53;;
59145;SDS011;44928;53.074;6.646;2022-07-05T05:46:21;10.95;;;4.47;;
59145;SDS011;44928;53.074;6.646;2022-07-05T05:48:47;8.48;;;4.40;;
59145;SDS011;44928;53.074;6.646;2022-07-05T05:51:13;7.88;;;4.18;;
59145;SDS011;44928;53.074;6.646;2022-07-05T05:53:39;7.80;;;4.00;;
59145;SDS011;44928;53.074;6.646;2022-07-05T05:56:04;9.00;;;4.53;;
59145;SDS011;44928;53.074;6.646;2022-07-05T05:58:30;7.50;;;3.35;;
59145;SDS011;44928;53.074;6.646;2022-07-05T06:00:56;6.70;;;2.97;;
59145;SDS011;44928;53.074;6.646;2022-07-05T06:03:22;8.35;;;3.40;;
59145;SDS011;44928;53.074;6.646;2022-07-05T06:05:49;10.52;;;3.70;;
59145;SDS011;44928;53.074;6.646;2022-07-05T06:08:15;7.55;;;3.10;;
59145;SDS011;44928;53.074;6.646;2022-07-05T06:10:42;6.72;;;2.97;;
59145;SDS011;44928;53.074;6.646;2022-07-05T06:13:09;8.98;;;2.67;;
59145;SDS011;44928;53.074;6.646;2022-07-05T06:15:37;6.85;;;3.22;;
59145;SDS011;44928;53.074;6.646;2022-07-05T06:18:03;7.70;;;2.55;;
59145;SDS011;44928;53.074;6.646;2022-07-05T06:20:33;8.98;;;3.20;;
59145;SDS011;44928;53.074;6.646;2022-07-05T06:23:00;8.55;;;3.03;;
59145;SDS011;44928;53.074;6.646;2022-07-05T06:25:27;7.40;;;3.00;;
59145;SDS011;44928;53.074;6.646;2022-07-05T06:27:54;8.27;;;2.67;;
59145;SDS011;44928;53.074;6.646;2022-07-05T06:30:23;6.22;;;2.22;;
59145;SDS011;44928;53.074;6.646;2022-07-05T06:32:50;6.72;;;1.98;;
59145;SDS011;44928;53.074;6.646;2022-07-05T06:35:16;6.82;;;2.70;;
59145;SDS011;44928;53.074;6.646;2022-07-05T06:38:01;8.13;;;2.20;;
59145;SDS011;44928;53.074;6.646;2022-07-05T06:40:29;6.03;;;2.22;;
59145;SDS011;44928;53.074;6.646;2022-07-05T06:43:00;5.80;;;1.75;;
59145;SDS011;44928;53.074;6.646;2022-07-05T06:45:28;5.00;;;1.60;;
59145;SDS011;44928;53.074;6.646;2022-07-05T06:47:55;8.00;;;2.00;;
59145;SDS011;44928;53.074;6.646;2022-07-05T06:50:25;6.22;;;1.40;;
59145;SDS011;44928;53.074;6.646;2022-07-05T06:52:52;7.28;;;1.83;;
59145;SDS011;44928;53.074;6.646;2022-07-05T06:55:18;5.25;;;1.50;;
59145;SDS011;44928;53.074;6.646;2022-07-05T06:57:44;6.30;;;1.40;;
59145;SDS011;44928;53.074;6.646;2022-07-05T07:00:10;3.97;;;1.35;;
59145;SDS011;44928;53.074;6.646;2022-07-05T07:02:37;6.43;;;1.40;;
59145;SDS011;44928;53.074;6.646;2022-07-05T07:05:02;7.65;;;1.30;;
59145;SDS011;44928;53.074;6.646;2022-07-05T07:07:30;2.95;;;0.90;;
59145;SDS011;44928;53.074;6.646;2022-07-05T07:10:15;6.43;;;1.58;;
59145;SDS011;44928;53.074;6.646;2022-07-05T07:12:41;5.88;;;1.65;;
59145;SDS011;44928;53.074;6.646;2022-07-05T07:15:07;7.00;;;1.10;;
59145;SDS011;44928;53.074;6.646;2022-07-05T07:17:33;8.32;;;1.73;;
59145;SDS011;44928;53.074;6.646;2022-07-05T07:19:59;3.83;;;1.02;;
59145;SDS011;44928;53.074;6.646;2022-07-05T07:22:25;5.25;;;1.00;;
59145;SDS011;44928;53.074;6.646;2022-07-05T07:24:50;3.40;;;0.93;;
59145;SDS011;44928;53.074;6.646;2022-07-05T07:27:16;4.75;;;1.15;;
59145;SDS011;44928;53.074;6.646;2022-07-05T07:29:42;5.00;;;1.15;;
59145;SDS011;44928;53.074;6.646;2022-07-05T07:32:08;6.80;;;1.20;;
59145;SDS011;44928;53.074;6.646;2022-07-05T07:34:35;5.40;;;0.93;;
59145;SDS011;44928;53.074;6.646;2022-07-05T07:37:02;7.00;;;1.30;;
59145;SDS011;44928;53.074;6.646;2022-07-05T07:39:28;4.88;;;0.98;;
59145;SDS011;44928;53.074;6.646;2022-07-05T07:41:57;6.55;;;1.45;;
59145;SDS011;44928;53.074;6.646;2022-07-05T07:44:23;2.92;;;0.95;;
59145;SDS011;44928;53.074;6.646;2022-07-05T07:46:49;3.38;;;0.73;;
59145;SDS011;44928;53.074;6.646;2022-07-05T07:49:15;4.65;;;1.00;;
59145;SDS011;44928;53.074;6.646;2022-07-05T07:51:41;5.68;;;1.00;;
59145;SDS011;44928;53.074;6.646;2022-07-05T07:54:07;4.70;;;0.88;;
59145;SDS011;44928;53.074;6.646;2022-07-05T07:56:33;3.47;;;0.85;;
59145;SDS011;44928;53.074;6.646;2022-07-05T07:58:59;4.28;;;0.95;;
59145;SDS011;44928;53.074;6.646;2022-07-05T08:01:25;4.18;;;0.95;;
59145;SDS011;44928;53.074;6.646;2022-07-05T08:03:51;6.40;;;1.10;;
59145;SDS011;44928;53.074;6.646;2022-07-05T08:06:17;5.45;;;1.00;;
59145;SDS011;44928;53.074;6.646;2022-07-05T08:08:43;5.55;;;0.90;;
59145;SDS011;44928;53.074;6.646;2022-07-05T08:11:10;5.47;;;1.10;;
59145;SDS011;44928;53.074;6.646;2022-07-05T08:13:37;4.28;;;0.70;;
59145;SDS011;44928;53.074;6.646;2022-07-05T08:16:07;3.57;;;0.90;;
59145;SDS011;44928;53.074;6.646;2022-07-05T08:18:34;5.97;;;0.80;;
59145;SDS011;44928;53.074;6.646;2022-07-05T08:21:18;5.57;;;0.80;;
59145;SDS011;44928;53.074;6.646;2022-07-05T08:23:59;3.95;;;0.70;;
59145;SDS011;44928;53.074;6.646;2022-07-05T08:26:26;8.82;;;1.05;;
59145;SDS011;44928;53.074;6.646;2022-07-05T08:28:52;4.53;;;0.82;;
59145;SDS011;44928;53.074;6.646;2022-07-05T08:31:19;5.30;;;1.00;;
59145;SDS011;44928;53.074;6.646;2022-07-05T08:33:45;6.90;;;1.30;;
59145;SDS011;44928;53.074;6.646;2022-07-05T08:36:11;6.10;;;1.23;;
59145;SDS011;44928;53.074;6.646;2022-07-05T08:38:37;7.43;;;1.05;;
59145;SDS011;44928;53.074;6.646;2022-07-05T08:41:02;4.35;;;0.80;;
59145;SDS011;44928;53.074;6.646;2022-07-05T08:43:33;4.22;;;0.90;;
59145;SDS011;44928;53.074;6.646;2022-07-05T08:46:05;3.13;;;0.73;;
59145;SDS011;44928;53.074;6.646;2022-07-05T08:48:39;6.18;;;0.93;;
59145;SDS011;44928;53.074;6.646;2022-07-05T08:53:46;3.90;;;0.75;;
59145;SDS011;44928;53.074;6.646;2022-07-05T08:56:13;6.32;;;1.05;;
59145;SDS011;44928;53.074;6.646;2022-07-05T08:58:39;5.53;;;1.00;;
59145;SDS011;44928;53.074;6.646;2022-07-05T09:01:05;6.65;;;1.23;;
59145;SDS011;44928;53.074;6.646;2022-07-05T09:03:51;3.67;;;0.80;;
59145;SDS011;44928;53.074;6.646;2022-07-05T09:06:24;4.35;;;1.00;;
59145;SDS011;44928;53.074;6.646;2022-07-05T09:08:51;4.38;;;1.00;;
59145;SDS011;44928;53.074;6.646;2022-07-05T09:11:24;5.88;;;1.10;;
59145;SDS011;44928;53.074;6.646;2022-07-05T09:13:54;5.35;;;0.93;;
59145;SDS011;44928;53.074;6.646;2022-07-05T09:16:19;6.78;;;1.20;;
59145;SDS011;44928;53.074;6.646;2022-07-05T09:18:49;6.18;;;1.00;;
59145;SDS011;44928;53.074;6.646;2022-07-05T09:29:13;3.45;;;0.70;;
59145;SDS011;44928;53.074;6.646;2022-07-05T09:31:47;3.00;;;0.85;;
59145;SDS011;44928;53.074;6.646;2022-07-05T09:34:14;6.43;;;1.13;;
59145;SDS011;44928;53.074;6.646;2022-07-05T09:39:16;3.38;;;0.90;;
59145;SDS011;44928;53.074;6.646;2022-07-05T09:44:53;4.05;;;0.95;;
59145;SDS011;44928;53.074;6.646;2022-07-05T09:47:24;6.32;;;1.20;;
59145;SDS011;44928;53.074;6.646;2022-07-05T09:49:55;3.78;;;0.77;;
59145;SDS011;44928;53.074;6.646;2022-07-05T09:52:35;5.00;;;0.98;;
59145;SDS011;44928;53.074;6.646;2022-07-05T09:55:09;4.30;;;1.00;;
59145;SDS011;44928;53.074;6.646;2022-07-05T09:57:41;4.35;;;0.80;;
59145;SDS011;44928;53.074;6.646;2022-07-05T10:00:15;4.35;;;0.90;;
59145;SDS011;44928;53.074;6.646;2022-07-05T10:02:51;7.60;;;1.08;;
59145;SDS011;44928;53.074;6.646;2022-07-05T10:05:22;2.78;;;0.77;;
59145;SDS011;44928;53.074;6.646;2022-07-05T10:10:31;2.78;;;0.80;;
59145;SDS011;44928;53.074;6.646;2022-07-05T10:12:58;3.13;;;1.20;;
59145;SDS011;44928;53.074;6.646;2022-07-05T10:15:30;5.88;;;1.10;;
59145;SDS011;44928;53.074;6.646;2022-07-05T10:18:05;5.00;;;1.02;;
59145;SDS011;44928;53.074;6.646;2022-07-05T10:20:39;5.18;;;1.20;;
59145;SDS011;44928;53.074;6.646;2022-07-05T10:23:13;5.78;;;1.00;;
59145;SDS011;44928;53.074;6.646;2022-07-05T10:25:40;5.65;;;1.40;;
59145;SDS011;44928;53.074;6.646;2022-07-05T10:28:08;1.52;;;0.70;;
59145;SDS011;44928;53.074;6.646;2022-07-05T10:30:35;4.43;;;1.05;;
59145;SDS011;44928;53.074;6.646;2022-07-05T10:33:02;4.60;;;1.10;;
59145;SDS011;44928;53.074;6.646;2022-07-05T10:35:29;3.28;;;0.82;;
59145;SDS011;44928;53.074;6.646;2022-07-05T10:37:55;4.45;;;0.90;;
59145;SDS011;44928;53.074;6.646;2022-07-05T10:40:23;2.58;;;0.98;;
59145;SDS011;44928;53.074;6.646;2022-07-05T10:42:54;3.78;;;1.10;;
59145;SDS011;44928;53.074;6.646;2022-07-05T10:48:11;7.85;;;1.27;;
59145;SDS011;44928;53.074;6.646;2022-07-05T10:50:44;7.35;;;1.17;;
59145;SDS011;44928;53.074;6.646;2022-07-05T10:53:17;4.50;;;0.90;;
59145;SDS011;44928;53.074;6.646;2022-07-05T11:06:21;6.38;;;1.05;;
59145;SDS011;44928;53.074;6.646;2022-07-05T11:13:53;1.92;;;0.80;;
59145;SDS011;44928;53.074;6.646;2022-07-05T11:16:24;3.58;;;0.70;;
59145;SDS011;44928;53.074;6.646;2022-07-05T11:18:52;3.05;;;0.75;;
59145;SDS011;44928;53.074;6.646;2022-07-05T11:21:28;4.18;;;0.80;;
59145;SDS011;44928;53.074;6.646;2022-07-05T11:23:55;5.85;;;1.15;;
59145;SDS011;44928;53.074;6.646;2022-07-05T11:26:50;3.70;;;0.75;;
59145;SDS011;44928;53.074;6.646;2022-07-05T11:32:19;4.32;;;0.82;;
59145;SDS011;44928;53.074;6.646;2022-07-05T11:34:49;4.65;;;0.80;;
59145;SDS011;44928;53.074;6.646;2022-07-05T11:37:26;3.00;;;0.70;;
59145;SDS011;44928;53.074;6.646;2022-07-05T11:40:42;4.65;;;0.80;;
59145;SDS011;44928;53.074;6.646;2022-07-05T11:45:15;3.67;;;0.70;;
59145;SDS011;44928;53.074;6.646;2022-07-05T11:47:41;3.67;;;0.82;;
59145;SDS011;44928;53.074;6.646;2022-07-05T11:50:08;3.63;;;0.90;;
59145;SDS011;44928;53.074;6.646;2022-07-05T11:52:38;2.03;;;0.80;;
59145;SDS011;44928;53.074;6.646;2022-07-05T11:55:10;3.40;;;0.80;;
59145;SDS011;44928;53.074;6.646;2022-07-05T11:57:36;2.90;;;0.80;;
59145;SDS011;44928;53.074;6.646;2022-07-05T12:00:03;4.35;;;1.00;;
59145;SDS011;44928;53.074;6.646;2022-07-05T12:02:30;7.50;;;1.00;;
59145;SDS011;44928;53.074;6.646;2022-07-05T12:04:56;4.68;;;0.85;;
59145;SDS011;44928;53.074;6.646;2022-07-05T12:07:26;3.35;;;0.50;;
59145;SDS011;44928;53.074;6.646;2022-07-05T12:09:59;2.30;;;0.60;;
59145;SDS011;44928;53.074;6.646;2022-07-05T12:12:45;5.40;;;0.90;;
59145;SDS011;44928;53.074;6.646;2022-07-05T12:17:39;3.88;;;0.80;;
59145;SDS011;44928;53.074;6.646;2022-07-05T12:20:08;4.13;;;0.60;;
59145;SDS011;44928;53.074;6.646;2022-07-05T12:22:37;2.72;;;0.80;;
59145;SDS011;44928;53.074;6.646;2022-07-05T12:25:08;4.45;;;0.80;;
59145;SDS011;44928;53.074;6.646;2022-07-05T12:27:37;3.15;;;0.70;;
59145;SDS011;44928;53.074;6.646;2022-07-05T12:30:07;9.32;;;0.90;;
59145;SDS011;44928;53.074;6.646;2022-07-05T12:32:52;7.97;;;1.10;;
59145;SDS011;44928;53.074;6.646;2022-07-05T12:35:35;4.15;;;0.90;;
59145;SDS011;44928;53.074;6.646;2022-07-05T12:38:02;3.80;;;0.80;;
59145;SDS011;44928;53.074;6.646;2022-07-05T12:40:30;5.50;;;1.00;;
59145;SDS011;44928;53.074;6.646;2022-07-05T12:42:59;5.75;;;0.90;;
59145;SDS011;44928;53.074;6.646;2022-07-05T12:45:41;4.80;;;0.95;;
59145;SDS011;44928;53.074;6.646;2022-07-05T12:48:29;4.85;;;1.10;;
59145;SDS011;44928;53.074;6.646;2022-07-05T12:51:02;5.32;;;0.98;;
59145;SDS011;44928;53.074;6.646;2022-07-05T12:53:29;4.22;;;0.82;;
59145;SDS011;44928;53.074;6.646;2022-07-05T12:56:14;5.80;;;1.23;;
59145;SDS011;44928;53.074;6.646;2022-07-05T12:59:00;5.38;;;0.90;;
59145;SDS011;44928;53.074;6.646;2022-07-05T13:01:28;6.10;;;1.00;;
59145;SDS011;44928;53.074;6.646;2022-07-05T13:04:17;5.43;;;1.20;;
59145;SDS011;44928;53.074;6.646;2022-07-05T13:06:45;6.07;;;1.30;;
59145;SDS011;44928;53.074;6.646;2022-07-05T13:12:06;5.78;;;1.20;;
59145;SDS011;44928;53.074;6.646;2022-07-05T13:14:47;5.03;;;1.00;;
59145;SDS011;44928;53.074;6.646;2022-07-05T13:17:15;3.75;;;0.75;;
59145;SDS011;44928;53.074;6.646;2022-07-05T13:19:43;8.10;;;1.10;;
59145;SDS011;44928;53.074;6.646;2022-07-05T13:22:10;4.93;;;1.05;;
59145;SDS011;44928;53.074;6.646;2022-07-05T13:24:36;5.50;;;1.00;;
59145;SDS011;44928;53.074;6.646;2022-07-05T13:27:02;3.10;;;0.80;;
59145;SDS011;44928;53.074;6.646;2022-07-05T13:29:30;3.22;;;0.80;;
59145;SDS011;44928;53.074;6.646;2022-07-05T13:31:55;7.30;;;1.23;;
59145;SDS011;44928;53.074;6.646;2022-07-05T13:34:22;4.68;;;0.85;;
59145;SDS011;44928;53.074;6.646;2022-07-05T13:36:54;5.95;;;1.17;;
59145;SDS011;44928;53.074;6.646;2022-07-05T13:39:21;3.55;;;0.90;;
59145;SDS011;44928;53.074;6.646;2022-07-05T13:41:50;4.05;;;0.93;;
59145;SDS011;44928;53.074;6.646;2022-07-05T13:44:17;2.85;;;0.80;;
59145;SDS011;44928;53.074;6.646;2022-07-05T13:46:44;5.95;;;1.10;;
59145;SDS011;44928;53.074;6.646;2022-07-05T13:49:10;3.22;;;0.85;;
59145;SDS011;44928;53.074;6.646;2022-07-05T13:51:36;4.57;;;1.00;;
59145;SDS011;44928;53.074;6.646;2022-07-05T13:54:02;5.70;;;1.20;;
59145;SDS011;44928;53.074;6.646;2022-07-05T13:56:28;6.10;;;0.90;;
59145;SDS011;44928;53.074;6.646;2022-07-05T13:58:54;5.18;;;1.55;;
59145;SDS011;44928;53.074;6.646;2022-07-05T14:01:20;5.07;;;1.08;;
59145;SDS011;44928;53.074;6.646;2022-07-05T14:03:54;3.78;;;0.80;;
59145;SDS011;44928;53.074;6.646;2022-07-05T14:06:22;3.45;;;0.82;;
59145;SDS011;44928;53.074;6.646;2022-07-05T14:08:47;4.30;;;1.13;;
59145;SDS011;44928;53.074;6.646;2022-07-05T14:11:13;5.03;;;1.00;;
59145;SDS011;44928;53.074;6.646;2022-07-05T14:13:39;5.03;;;0.98;;
59145;SDS011;44928;53.074;6.646;2022-07-05T14:16:05;4.88;;;1.00;;
59145;SDS011;44928;53.074;6.646;2022-07-05T14:18:32;5.50;;;1.20;;
59145;SDS011;44928;53.074;6.646;2022-07-05T14:20:58;3.50;;;1.00;;
59145;SDS011;44928;53.074;6.646;2022-07-05T14:23:24;3.53;;;0.90;;
59145;SDS011;44928;53.074;6.646;2022-07-05T14:25:49;4.22;;;0.90;;
59145;SDS011;44928;53.074;6.646;2022-07-05T14:28:15;4.03;;;0.77;;
59145;SDS011;44928;53.074;6.646;2022-07-05T14:30:42;3.70;;;1.00;;
59145;SDS011;44928;53.074;6.646;2022-07-05T14:33:09;5.80;;;0.75;;
59145;SDS011;44928;53.074;6.646;2022-07-05T14:35:36;4.10;;;0.93;;
59145;SDS011;44928;53.074;6.646;2022-07-05T14:38:02;4.55;;;1.00;;
59145;SDS011;44928;53.074;6.646;2022-07-05T14:40:28;2.92;;;0.95;;
59145;SDS011;44928;53.074;6.646;2022-07-05T14:42:55;4.13;;;0.85;;
59145;SDS011;44928;53.074;6.646;2022-07-05T14:45:25;3.50;;;0.90;;
59145;SDS011;44928;53.074;6.646;2022-07-05T14:47:52;4.60;;;0.95;;
59145;SDS011;44928;53.074;6.646;2022-07-05T14:50:18;4.00;;;0.80;;
59145;SDS011;44928;53.074;6.646;2022-07-05T14:52:45;5.07;;;1.05;;
59145;SDS011;44928;53.074;6.646;2022-07-05T14:55:12;4.03;;;0.73;;
59145;SDS011;44928;53.074;6.646;2022-07-05T14:57:38;3.67;;;0.70;;
59145;SDS011;44928;53.074;6.646;2022-07-05T15:00:06;3.38;;;1.17;;
59145;SDS011;44928;53.074;6.646;2022-07-05T15:02:35;3.90;;;1.00;;
59145;SDS011;44928;53.074;6.646;2022-07-05T15:05:01;4.38;;;1.00;;
59145;SDS011;44928;53.074;6.646;2022-07-05T15:07:27;4.50;;;1.13;;
59145;SDS011;44928;53.074;6.646;2022-07-05T15:09:53;5.60;;;0.90;;
59145;SDS011;44928;53.074;6.646;2022-07-05T15:12:19;3.97;;;0.90;;
59145;SDS011;44928;53.074;6.646;2022-07-05T15:14:45;4.07;;;1.00;;
59145;SDS011;44928;53.074;6.646;2022-07-05T15:17:11;6.72;;;1.23;;
59145;SDS011;44928;53.074;6.646;2022-07-05T15:19:37;1.85;;;0.63;;
59145;SDS011;44928;53.074;6.646;2022-07-05T15:22:05;2.90;;;0.73;;
59145;SDS011;44928;53.074;6.646;2022-07-05T15:24:31;3.35;;;0.85;;
59145;SDS011;44928;53.074;6.646;2022-07-05T15:26:57;5.97;;;0.90;;
59145;SDS011;44928;53.074;6.646;2022-07-05T15:29:23;4.10;;;0.77;;
59145;SDS011;44928;53.074;6.646;2022-07-05T15:31:52;3.80;;;0.70;;
59145;SDS011;44928;53.074;6.646;2022-07-05T15:34:18;3.80;;;0.93;;
59145;SDS011;44928;53.074;6.646;2022-07-05T15:36:43;4.38;;;0.90;;
59145;SDS011;44928;53.074;6.646;2022-07-05T15:39:09;3.95;;;1.00;;
59145;SDS011;44928;53.074;6.646;2022-07-05T15:41:35;5.88;;;1.10;;
59145;SDS011;44928;53.074;6.646;2022-07-05T15:44:01;4.20;;;0.80;;